Flight Track Log - Related Links

Times and Time Zones

All times are in EDT time to prevent confusion due to time zone crossing. See the JUS327 flight status page for this flight to view local times or setup timezone preferences in your user account.

Time Position Orientation Groundspeed Altitude Reporting Facility
EDT Latitude Longitude Course Direction KTS MPH feet Rate Location/Type
Tue 08:17:09 PM 38.2739 -85.7708 352° North 194 223 4,800  Level Indianapolis Center
Tue 08:18:11 PM 38.3403 -85.8139 333° Northwest 253 291 8,300 3,000 Climbing Indianapolis Center
Tue 08:19:13 PM 38.4097 -85.8508 337° Northwest 268 308 11,000 2,952 Climbing Indianapolis Center
Tue 08:20:15 PM 38.5167 -85.8689 352° North 322 371 14,400 2,927 Climbing Indianapolis Center
Tue 08:21:16 PM 38.6106 -85.8622 North 335 386 17,000 2,439 Climbing Indianapolis Center
Tue 08:22:18 PM 38.7017 -85.8625 360° North 347 399 19,400 2,323 Climbing Indianapolis Center
Tue 08:23:20 PM 38.8011 -85.8619 360° North 357 411 21,800 2,177 Climbing Indianapolis Center
Tue 08:24:22 PM 38.9039 -85.8542 North 369 425 23,900 2,098 Climbing Indianapolis Center
Tue 08:25:23 PM 39.0325 -85.8444 North 385 443 26,100 1,463 Climbing Indianapolis Center
Tue 08:26:25 PM 39.1458 -85.8475 359° North 405 466 26,900 435 Climbing Indianapolis Center
Tue 08:27:27 PM 39.2622 -85.8367 North 420 483 27,000 48 Climbing Indianapolis Center
Tue 08:28:29 PM 39.3831 -85.8311 North 434 499 27,000  Level Indianapolis Center
Tue 08:29:31 PM 39.5053 -85.8361 358° North 442 509 27,000  Level Indianapolis Center
Tue 08:30:32 PM 39.6497 -85.8150 North 442 509 27,000  Level Indianapolis Center
Tue 08:31:34 PM 39.7658 -85.7650 18° North 444 511 27,000  Level Indianapolis Center
Tue 08:32:36 PM 39.8819 -85.7169 18° North 442 509 27,000  Level Indianapolis Center
Tue 08:33:38 PM 40.0003 -85.6867 11° North 439 505 27,000  Level Indianapolis Center
Tue 08:34:39 PM 40.1144 -85.6356 19° North 440 506 27,000  Level Indianapolis Center
Tue 08:35:30 PM 40.2200 -85.5592 29° Northeast 438 504 27,000  Level Chicago Center
Tue 08:36:32 PM 40.3325 -85.5044 20° North 432 497 27,000  Level Chicago Center
Tue 08:37:34 PM 40.4461 -85.4544 19° North 432 497 27,000  Level Chicago Center
Tue 08:38:36 PM 40.5553 -85.3881 25° Northeast 433 498 27,000 -145 Level Chicago Center
Tue 08:39:38 PM 40.6833 -85.3325 18° North 428 493 26,700 -1,306 Descending Chicago Center
Tue 08:40:40 PM 40.7881 -85.2856 19° North 408 470 24,300 -2,177 Descending Chicago Center
Tue 08:41:42 PM 40.8808 -85.2294 25° Northeast 377 434 22,200 -1,597 Descending Chicago Center
Tue 08:42:44 PM 40.9761 -85.1875 18° North 365 420 21,000 -581 Descending Chicago Center
Tue 08:43:46 PM 41.0722 -85.1486 17° North 363 418 21,000  Level Chicago Center
Tue 08:44:48 PM 41.1889 -85.1075 15° North 363 418 21,000  Level Chicago Center
Tue 08:45:51 PM 41.2847 -85.0611 20° North 367 422 21,000  Level Chicago Center
Tue 08:46:53 PM 41.3861 -85.0325 12° North 374 430 21,000 -48 Level Chicago Center
Tue 08:47:55 PM 41.4700 -84.9578 34° Northeast 381 438 20,900 -774 Descending Chicago Center
Tue 08:48:57 PM 41.5347 -84.8550 50° Northeast 368 423 19,400 -1,597 Descending Chicago Center
Tue 08:49:59 PM 41.6103 -84.7411 48° Northeast 346 398 17,600 -1,571 Descending Chicago Center
Tue 08:50:21 PM 41.6314 -84.7036 53° Northeast 346 398 17,200 -1,390 Descending Cleveland Center
Tue 08:51:21 PM 41.6892 -84.6072 51° Northeast 338 389 15,700 -1,450 Descending Cleveland Center
Tue 08:52:21 PM 41.7508 -84.5136 49° Northeast 333 383 14,300 -1,376 Descending Cleveland Center
Tue 08:53:10 PM 41.7931 -84.4381 53° Northeast 326 375 13,200 -1,550 Descending Cleveland Center
Tue 08:54:21 PM 41.8656 -84.3281 48° Northeast 328 377 11,200 -1,374 Descending Cleveland Center
Tue 08:55:21 PM 41.9100 -84.2414 55° Northeast 322 371 10,200 -532 Descending Cleveland Center
Tue 08:56:25 PM 41.9714 -84.1444 50° Northeast 274 315 10,100 -550 Descending Cleveland Center
Tue 08:57:21 PM 42.0147 -84.0908 43° Northeast 277 319 9,100 -1,315 Descending Cleveland Center
Tue 08:57:38 PM 42.0364 -84.0669 39° Northeast 259 298 8,500 -2,031 Descending Cleveland Center
Tue 08:58:26 PM 42.0817 -84.0133 41° Northeast 261 300 6,900 -1,826 Descending Cleveland Center
Tue 08:59:33 PM 42.1339 -83.9378 47° Northeast 256 295 5,000 -1,266 Descending Cleveland Center
Tue 09:00:34 PM 42.1694 -83.8611 58° Northeast 209 241 4,200 -550 Descending Cleveland Center
Tue 09:01:22 PM 42.1978 -83.8178 49° Northeast 190 219 4,000 -495 Descending Cleveland Center
Tue 09:02:23 PM 42.2228 -83.7517 63° Northeast 207 238 3,300 -738 Descending Cleveland Center
Tue 09:03:24 PM 42.2411 -83.6853 70° East 190 219 2,500 -397 Descending Cleveland Center
Tue 09:04:24 PM 42.2636 -83.6247 63° Northeast 181 208 2,500  Level Cleveland Center
Tue 09:05:25 PM 42.3025 -83.5733 44° Northeast 173 199 2,500 -52 Level Cleveland Center
Tue 09:06:20 PM 42.3183 -83.5289 64° Northeast 168 193 2,400 -313 Descending Cleveland Center
Tue 09:07:20 PM 42.2881 -83.4856 133° Southeast 151 174 1,900 -500 Descending Cleveland Center

Login

Don't have an account? Register now (free) for customized features, flight alerts, and more!